Terminal Aerodrome Forecast
Issued by NWS

Home | Current Version | Previous Version | Graphics & Text | Print | Product List | Glossary On
Versions: 1 2 3 4 5 6 7 8 9 10 11 12 13 14 15 16 17 18 19 20 21 22 23 24 25 26 27 28 29 30 31 32 33
000
FTUS43 KLOT 171700
TAFORD
TAF
KORD 171739Z 1718/1824 26005KT P6SM FEW040 SCT250
     FM172300 09006KT P6SM FEW040 SCT080
     FM180300 VRB02KT P6SM SKC
     FM181400 03006KT P6SM FEW012 SCT025 BKN200
     FM182000 06010KT P6SM FEW025 BKN250=

USA.gov is the U.S. government's official web portal to all federal, state and local government web resources and services.